Time;durP1;ratioP1;P1;durP2;ratioP2;P2;SDS_P1;SDS_P2;PMS_P1;PMS_P2;Temp;Humidity;BMP_temperature;BMP_pressure;BME280_temperature;BME280_humidity;BME280_pressure;Samples;Min_cycle;Max_cycle;Signal;HPM_P1;HPM_P2
2023/03/24 00:00:20;;;;;;;;;;;;;;;27.19;37.83;93589.81;4928291;28;7226;-56
2023/03/24 00:02:47;;;;;;;;;;;;;;;27.19;37.49;93593.34;4944991;28;7205;-56
2023/03/24 00:05:53;;;;;;;;;;;;;;;27.19;37.65;93585.06;5010605;28;7039;-56
2023/03/24 00:08:33;;;;;;;;;;;;;;;27.15;37.20;93581.16;4958476;28;7271;-56
2023/03/24 00:11:11;;;;;;;;;;;;;;;27.17;37.61;93573.81;4963820;28;7169;-56
2023/03/24 00:13:57;;;;;;;;;;;;;;;27.17;37.61;93568.28;4946000;28;8715;-56
2023/03/24 00:16:23;;;;;;;;;;;;;;;27.17;37.63;93568.28;4947900;28;7427;-56
2023/03/24 00:19:04;;;;;;;;;;;;;;;27.13;37.70;93551.34;4972133;28;9689;-56
2023/03/24 00:21:54;;;;;;;;;;;;;;;27.15;37.58;93559.81;4950660;28;8199;-56
2023/03/24 00:24:29;;;;;;;;;;;;;;;27.15;37.28;93548.78;4960180;28;7303;-56
2023/03/24 00:27:04;;;;;;;;;;;;;;;27.15;38.04;93553.53;4972296;28;9253;-56
2023/03/24 00:30:21;;;;;;;;;;;;;;;27.16;37.69;93555.03;4959618;28;7302;-56
2023/03/24 00:32:48;;;;;;;;;;;;;;;27.12;37.51;93544.31;4937643;28;7236;-56
2023/03/24 00:35:22;;;;;;;;;;;;;;;27.15;37.85;93554.28;4958056;28;9081;-56
2023/03/24 00:37:50;;;;;;;;;;;;;;;27.14;37.65;93552.06;4974975;28;7043;-56
2023/03/24 00:40:20;;;;;;;;;;;;;;;27.14;37.64;93552.81;4955180;28;9207;-57
2023/03/24 00:42:51;;;;;;;;;;;;;;;27.14;37.72;93549.31;4962243;28;7037;-56
2023/03/24 00:45:22;;;;;;;;;;;;;;;27.15;37.62;93554.28;5000503;28;7048;-56
2023/03/24 00:47:57;;;;;;;;;;;;;;;27.15;37.64;93543.25;5037084;28;9268;-56
2023/03/24 00:50:25;;;;;;;;;;;;;;;27.16;38.07;93544.75;5000268;28;9206;-56
2023/03/24 00:53:00;;;;;;;;;;;;;;;27.15;37.59;93537.72;5022081;28;8893;-56
2023/03/24 00:55:27;;;;;;;;;;;;;;;27.13;37.75;93534.03;5012487;28;9150;-56
2023/03/24 00:58:09;;;;;;;;;;;;;;;27.14;37.54;93525.22;5010427;28;7191;-56
2023/03/24 01:00:40;;;;;;;;;;;;;;;27.14;37.65;93539.03;5034504;28;7071;-56
2023/03/24 01:03:08;;;;;;;;;;;;;;;27.13;37.52;93536.78;5035116;28;9094;-56
2023/03/24 01:05:35;;;;;;;;;;;;;;;27.14;37.39;93536.25;5001761;28;9387;-56
2023/03/24 01:08:09;;;;;;;;;;;;;;;27.12;37.81;93524.28;5012847;28;7068;-56
2023/03/24 01:10:49;;;;;;;;;;;;;;;27.18;37.47;93522.09;5007294;28;7316;-56
2023/03/24 01:13:27;;;;;;;;;;;;;;;27.16;37.89;93528.19;5005415;28;7477;-56
2023/03/24 01:15:56;;;;;;;;;;;;;;;27.17;37.34;93528.91;5009568;28;7246;-56
2023/03/24 01:18:29;;;;;;;;;;;;;;;27.17;37.67;93526.88;5018642;28;7259;-56
2023/03/24 01:20:57;;;;;;;;;;;;;;;27.17;38.07;93523.38;5020482;28;7161;-56
2023/03/24 01:23:30;;;;;;;;;;;;;;;27.16;37.69;93519.91;5016786;28;7005;-56
2023/03/24 01:26:16;;;;;;;;;;;;;;;27.14;37.89;93505.91;5009137;28;7012;-56
2023/03/24 01:28:43;;;;;;;;;;;;;;;27.15;37.56;93512.13;5013053;28;9757;-56
2023/03/24 01:31:12;;;;;;;;;;;;;;;27.13;37.96;93498.13;5003675;28;7046;-56
2023/03/24 01:33:38;;;;;;;;;;;;;;;27.13;37.78;93503.66;5012170;28;6867;-56
2023/03/24 01:36:09;;;;;;;;;;;;;;;27.14;37.63;93505.91;5009183;28;8973;-56
2023/03/24 01:38:41;;;;;;;;;;;;;;;27.14;37.83;93511.41;5016063;28;7297;-56
2023/03/24 01:41:17;;;;;;;;;;;;;;;27.13;37.89;93500.91;5018936;28;7266;-56
2023/03/24 01:43:43;;;;;;;;;;;;;;;27.09;38.06;93503.25;5007625;28;6860;-56
2023/03/24 01:46:21;;;;;;;;;;;;;;;27.10;38.08;93510.28;5000189;28;7396;-56
2023/03/24 01:49:10;;;;;;;;;;;;;;;27.10;37.61;93515.81;5017433;28;9138;-56
2023/03/24 01:51:39;;;;;;;;;;;;;;;27.10;38.11;93530.31;5017655;28;9044;-56
2023/03/24 01:54:08;;;;;;;;;;;;;;;27.09;37.70;93572.28;5040971;28;8449;-56
2023/03/24 01:56:38;;;;;;;;;;;;;;;27.09;37.98;93545.41;5024278;28;7270;-56
2023/03/24 01:59:09;;;;;;;;;;;;;;;27.10;37.98;93574.47;5003579;28;9169;-56
2023/03/24 02:01:38;;;;;;;;;;;;;;;27.11;37.90;93553.16;4999496;28;9021;-56
2023/03/24 02:04:10;;;;;;;;;;;;;;;27.10;37.95;93571.72;5006650;28;7539;-56
2023/03/24 02:06:42;;;;;;;;;;;;;;;27.10;37.90;93546.88;4999547;28;9046;-56
2023/03/24 02:09:10;;;;;;;;;;;;;;;27.10;37.23;93571.72;4992504;28;9260;-56
2023/03/24 02:11:38;;;;;;;;;;;;;;;27.07;37.93;93564.53;4992843;28;8937;-56
2023/03/24 02:14:11;;;;;;;;;;;;;;;27.07;37.90;93567.31;5012924;28;8735;-56
2023/03/24 02:16:51;;;;;;;;;;;;;;;27.06;37.94;93574.09;5025732;28;7128;-56
2023/03/24 02:19:37;;;;;;;;;;;;;;;27.07;37.85;93578.34;5005918;28;7625;-56
2023/03/24 02:22:49;;;;;;;;;;;;;;;27.07;37.99;93583.13;5013004;28;8986;-56
2023/03/24 02:25:45;;;;;;;;;;;;;;;27.06;38.18;93582.38;4998572;28;9612;-56
2023/03/24 02:28:36;;;;;;;;;;;;;;;27.07;38.48;93583.13;4948706;28;7227;-56
2023/03/24 02:31:23;;;;;;;;;;;;;;;27.06;37.78;93585.13;4918888;29;8609;-56
2023/03/24 02:34:20;;;;;;;;;;;;;;;27.06;37.96;93579.59;4936087;28;8963;-56
2023/03/24 02:40:57;;;;;;;;;;;;;;;27.05;38.27;93505.63;4909754;29;7354;-56
2023/03/24 02:43:27;;;;;;;;;;;;;;;27.05;37.64;93494.59;4861224;29;7103;-56
2023/03/24 02:46:21;;;;;;;;;;;;;;;27.03;37.68;93481.34;4876310;29;6869;-56
2023/03/24 02:49:26;;;;;;;;;;;;;;;27.03;37.79;93475.81;4862841;29;8250;-56
2023/03/24 02:52:25;;;;;;;;;;;;;;;27.02;38.12;93468.06;4868013;29;7659;-56
2023/03/24 02:55:01;;;;;;;;;;;;;;;27.01;37.95;93445.28;4869770;29;9427;-56
2023/03/24 02:57:48;;;;;;;;;;;;;;;27.04;37.80;93426.88;4862570;29;9068;-56
2023/03/24 03:00:40;;;;;;;;;;;;;;;27.01;38.50;93431.47;4861153;29;9366;-56
2023/03/24 03:03:26;;;;;;;;;;;;;;;27.02;37.76;93419.13;4852318;29;7041;-56
2023/03/24 03:06:14;;;;;;;;;;;;;;;27.01;38.25;93408.66;4884446;29;9363;-56
2023/03/24 03:08:46;;;;;;;;;;;;;;;27.00;37.99;93398.88;4897076;29;9256;-56
2023/03/24 03:11:15;;;;;;;;;;;;;;;27.01;37.78;93409.41;4900415;29;9048;-56
2023/03/24 03:13:44;;;;;;;;;;;;;;;27.03;38.03;93406.81;4911344;28;9458;-56
2023/03/24 03:16:52;;;;;;;;;;;;;;;27.02;37.94;93402.56;4939192;28;7570;-56
2023/03/24 03:19:57;;;;;;;;;;;;;;;27.03;38.17;93403.31;4953294;28;9287;-56
2023/03/24 03:22:37;;;;;;;;;;;;;;;27.00;37.98;93399.63;4945191;28;9386;-56
2023/03/24 03:25:04;;;;;;;;;;;;;;;26.99;37.91;93398.13;4952775;28;7261;-56
2023/03/24 03:27:38;;;;;;;;;;;;;;;27.01;37.94;93400.38;4952340;28;7361;-56
2023/03/24 03:30:15;;;;;;;;;;;;;;;27.01;38.40;93395.59;4948741;28;7947;-56
2023/03/24 03:32:53;;;;;;;;;;;;;;;27.01;38.48;93403.88;4951000;28;7040;-56
2023/03/24 03:35:37;;;;;;;;;;;;;;;27.03;37.91;93415.09;4943835;28;8923;-56
2023/03/24 03:38:19;;;;;;;;;;;;;;;27.02;37.85;93416.38;4951648;28;7590;-56
2023/03/24 03:41:02;;;;;;;;;;;;;;;27.01;38.48;93428.72;4936540;28;9395;-56
2023/03/24 03:43:32;;;;;;;;;;;;;;;26.99;38.53;93420.22;4959711;28;9596;-56
2023/03/24 03:46:00;;;;;;;;;;;;;;;27.01;37.93;93437.00;4952086;28;7462;-56
2023/03/24 03:48:30;;;;;;;;;;;;;;;27.00;38.41;93432.75;4951958;28;7272;-56
2023/03/24 03:50:57;;;;;;;;;;;;;;;27.01;38.86;93439.00;4952021;28;7312;-56
2023/03/24 03:53:35;;;;;;;;;;;;;;;26.99;38.20;93447.81;4956444;28;9308;-56
2023/03/24 03:56:03;;;;;;;;;;;;;;;27.01;38.20;93444.53;4992336;28;7281;-56
2023/03/24 03:58:29;;;;;;;;;;;;;;;27.01;38.09;93450.78;5010135;28;8744;-56
2023/03/24 04:00:56;;;;;;;;;;;;;;;27.00;38.57;93416.19;5022095;28;7017;-56
2023/03/24 04:03:52;;;;;;;;;;;;;;;27.00;38.24;93432.75;5037559;28;7045;-56
2023/03/24 04:06:27;;;;;;;;;;;;;;;27.01;38.40;93437.00;4935707;28;7093;-56
2023/03/24 04:09:23;;;;;;;;;;;;;;;27.00;38.02;93409.91;4950386;28;7068;-56
2023/03/24 04:12:21;;;;;;;;;;;;;;;27.02;37.82;93443.22;4923516;29;7762;-56
2023/03/24 04:15:07;;;;;;;;;;;;;;;26.99;38.00;93439.53;4873202;29;6925;-56
2023/03/24 04:17:52;;;;;;;;;;;;;;;27.00;38.12;93432.75;4894571;29;7265;-56
2023/03/24 04:20:27;;;;;;;;;;;;;;;26.99;38.34;93445.03;4871389;29;7229;-56
2023/03/24 04:23:13;;;;;;;;;;;;;;;27.00;37.82;93452.06;4893064;29;7098;-56
2023/03/24 04:26:09;;;;;;;;;;;;;;;27.00;38.16;93457.56;4877934;29;10477;-56
2023/03/24 04:28:42;;;;;;;;;;;;;;;26.99;38.04;93450.56;4878951;29;9062;-56
2023/03/24 04:31:28;;;;;;;;;;;;;;;26.99;38.00;93480.94;4893413;29;7264;-56
2023/03/24 04:34:05;;;;;;;;;;;;;;;27.01;37.94;93478.38;4887986;29;7107;-56
2023/03/24 04:37:01;;;;;;;;;;;;;;;26.99;38.13;93488.50;4886469;29;7072;-56
2023/03/24 04:39:34;;;;;;;;;;;;;;;27.00;38.18;93496.22;4890719;29;6937;-56
2023/03/24 04:42:11;;;;;;;;;;;;;;;26.99;37.96;93486.44;4907937;28;7475;-56
2023/03/24 04:44:40;;;;;;;;;;;;;;;26.97;38.03;93497.28;4965020;28;9409;-56
2023/03/24 04:47:11;;;;;;;;;;;;;;;26.98;38.52;93490.50;4942451;28;7251;-56
2023/03/24 04:49:41;;;;;;;;;;;;;;;26.99;38.19;93499.53;4954437;28;7236;-56
2023/03/24 04:52:07;;;;;;;;;;;;;;;26.97;38.10;93483.50;5002726;28;7585;-56
2023/03/24 04:54:35;;;;;;;;;;;;;;;26.98;38.36;93498.78;5018946;28;7012;-56
2023/03/24 04:57:04;;;;;;;;;;;;;;;26.97;38.12;93491.78;5020280;28;7064;-56
2023/03/24 04:59:33;;;;;;;;;;;;;;;26.98;37.99;93506.31;5010378;28;7054;-56
2023/03/24 05:02:01;;;;;;;;;;;;;;;26.97;38.10;93497.28;5030489;28;8883;-56
2023/03/24 05:04:30;;;;;;;;;;;;;;;26.96;38.31;93506.88;5011558;28;8765;-56
2023/03/24 05:07:08;;;;;;;;;;;;;;;26.95;37.99;93499.84;5011862;28;7229;-56
2023/03/24 05:09:38;;;;;;;;;;;;;;;26.98;37.95;93511.84;5003860;28;8218;-56
2023/03/24 05:12:18;;;;;;;;;;;;;;;26.99;37.90;93510.56;5027245;28;8077;-56
2023/03/24 05:15:00;;;;;;;;;;;;;;;26.98;38.27;93507.06;5011773;28;7084;-56
2023/03/24 05:17:32;;;;;;;;;;;;;;;26.96;38.29;93515.16;5003982;28;9324;-56
2023/03/24 05:20:01;;;;;;;;;;;;;;;26.95;38.40;93519.16;5020670;28;9012;-56
2023/03/24 05:22:28;;;;;;;;;;;;;;;26.95;38.44;93519.16;5012310;28;7041;-56
2023/03/24 05:25:27;;;;;;;;;;;;;;;26.96;38.11;93523.41;5017239;28;7208;-56
2023/03/24 05:28:01;;;;;;;;;;;;;;;26.92;38.21;93504.44;5026735;28;7117;-56
2023/03/24 05:30:34;;;;;;;;;;;;;;;26.91;38.10;93524.28;5024597;28;9191;-56
2023/03/24 05:33:04;;;;;;;;;;;;;;;26.90;37.98;93523.53;5010237;28;9304;-56
2023/03/24 05:35:37;;;;;;;;;;;;;;;26.92;38.56;93525.78;5034205;28;9068;-56
2023/03/24 05:38:33;;;;;;;;;;;;;;;26.89;38.49;93533.13;5009470;28;9081;-56
2023/03/24 05:41:07;;;;;;;;;;;;;;;26.86;38.67;93539.72;4993447;28;8635;-56
2023/03/24 05:43:34;;;;;;;;;;;;;;;26.87;38.28;93543.97;4960080;28;7035;-56
2023/03/24 05:46:12;;;;;;;;;;;;;;;26.88;38.70;93550.22;4978637;28;9951;-56
2023/03/24 05:48:56;;;;;;;;;;;;;;;26.85;39.01;93549.28;4962633;28;7034;-56
2023/03/24 05:51:25;;;;;;;;;;;;;;;26.88;38.62;93553.69;4973939;28;7269;-56
2023/03/24 05:54:04;;;;;;;;;;;;;;;26.87;38.50;93554.25;4971878;28;7250;-56
2023/03/24 05:56:31;;;;;;;;;;;;;;;26.87;38.89;93557.00;4984504;28;7046;-56
2023/03/24 05:58:59;;;;;;;;;;;;;;;26.83;38.41;93557.34;4985457;28;7246;-56
2023/03/24 06:02:02;;;;;;;;;;;;;;;26.85;38.20;93556.81;4971422;28;7013;-56
2023/03/24 06:05:07;;;;;;;;;;;;;;;26.88;38.80;93564.03;4973368;28;7275;-56
2023/03/24 06:07:34;;;;;;;;;;;;;;;26.87;39.13;93563.28;4960339;28;9041;-56
2023/03/24 06:10:06;;;;;;;;;;;;;;;26.92;38.38;93564.41;4985911;28;7244;-56
2023/03/24 06:12:45;;;;;;;;;;;;;;;26.89;38.92;93563.47;4966549;28;7310;-56
2023/03/24 06:15:49;;;;;;;;;;;;;;;26.89;38.74;93579.28;4974337;28;8956;-56
2023/03/24 06:18:16;;;;;;;;;;;;;;;26.92;38.53;93564.41;4931710;29;7252;-56
2023/03/24 06:20:44;;;;;;;;;;;;;;;26.90;38.65;93566.97;4914221;29;7084;-56
2023/03/24 06:23:40;;;;;;;;;;;;;;;26.94;38.74;93569.38;4920341;29;8799;-56
2023/03/24 06:26:20;;;;;;;;;;;;;;;26.96;38.31;93577.88;4922481;29;9320;-56
2023/03/24 06:29:00;;;;;;;;;;;;;;;26.97;39.09;93580.06;4935184;29;9038;-56
2023/03/24 06:31:56;;;;;;;;;;;;;;;26.99;38.81;93579.56;4932525;29;7421;-57
2023/03/24 06:34:53;;;;;;;;;;;;;;;26.95;38.75;93576.41;4898408;29;9462;-57
2023/03/24 06:37:23;;;;;;;;;;;;;;;26.92;38.78;93580.97;4859584;29;7297;-56
2023/03/24 06:39:57;;;;;;;;;;;;;;;26.93;38.69;93596.25;4875282;29;8126;-56
2023/03/24 06:42:23;;;;;;;;;;;;;;;26.92;39.03;93589.25;4872612;29;9044;-56
2023/03/24 06:45:00;;;;;;;;;;;;;;;26.93;38.55;93596.25;4863685;29;7458;-56
2023/03/24 06:47:38;;;;;;;;;;;;;;;26.93;39.04;93601.75;4861567;29;7427;-56
2023/03/24 06:50:07;;;;;;;;;;;;;;;26.92;38.73;93603.78;4879746;29;7121;-56
2023/03/24 06:52:36;;;;;;;;;;;;;;;26.87;38.71;93603.91;4868985;29;7203;-56
2023/03/24 06:55:03;;;;;;;;;;;;;;;26.88;39.02;93613.69;4861596;29;9197;-56
2023/03/24 06:57:32;;;;;;;;;;;;;;;26.87;38.55;93614.94;4867679;29;7239;-56
2023/03/24 06:59:59;;;;;;;;;;;;;;;26.85;38.65;93620.28;4868284;29;7256;-56
2023/03/24 07:02:34;;;;;;;;;;;;;;;26.84;38.97;93613.25;4853438;29;7645;-56
2023/03/24 07:05:09;;;;;;;;;;;;;;;26.87;38.51;93612.19;4859726;29;7015;-56
2023/03/24 07:07:36;;;;;;;;;;;;;;;26.87;39.23;93617.72;4861096;29;8286;-56
2023/03/24 07:10:08;;;;;;;;;;;;;;;26.88;38.98;93622.69;4879455;29;7225;-56
2023/03/24 07:12:42;;;;;;;;;;;;;;;26.86;38.86;93614.22;4941012;28;7040;-56
2023/03/24 07:15:08;;;;;;;;;;;;;;;26.87;38.77;93617.72;5025940;28;9372;-56
2023/03/24 07:17:35;;;;;;;;;;;;;;;26.86;38.71;93619.00;5016126;28;9668;-56
2023/03/24 07:20:06;;;;;;;;;;;;;;;26.87;38.84;93618.47;5002645;28;7238;-56
2023/03/24 07:22:35;;;;;;;;;;;;;;;26.88;39.15;93619.22;5025602;28;7345;-55
2023/03/24 07:25:04;;;;;;;;;;;;;;;26.88;38.79;93621.97;5003110;28;7261;-56
2023/03/24 07:27:34;;;;;;;;;;;;;;;26.88;38.86;93621.97;5019117;28;7100;-56
2023/03/24 07:30:01;;;;;;;;;;;;;;;26.88;39.41;93635.75;5001160;28;7277;-56
2023/03/24 07:32:33;;;;;;;;;;;;;;;26.89;39.04;93635.22;5022395;28;9527;-56
2023/03/24 07:35:03;;;;;;;;;;;;;;;26.92;39.04;93638.19;5017471;28;7921;-56
2023/03/24 07:37:32;;;;;;;;;;;;;;;26.92;38.78;93645.16;5014518;28;7075;-56
2023/03/24 07:39:58;;;;;;;;;;;;;;;26.95;39.08;93651.63;5012160;28;7293;-56
2023/03/24 07:42:26;;;;;;;;;;;;;;;26.92;38.89;93658.25;5037974;28;9619;-56
2023/03/24 07:44:59;;;;;;;;;;;;;;;26.92;38.85;93655.47;5021179;28;7038;-56
2023/03/24 07:47:27;;;;;;;;;;;;;;;26.92;39.04;93668.53;5013124;28;7235;-56
2023/03/24 07:49:55;;;;;;;;;;;;;;;26.91;39.56;93673.31;5021784;28;9076;-56
2023/03/24 07:52:29;;;;;;;;;;;;;;;26.90;39.55;93672.56;5011451;28;7589;-56
2023/03/24 07:55:00;;;;;;;;;;;;;;;26.95;39.13;93684.75;5014131;28;9074;-56
2023/03/24 07:57:30;;;;;;;;;;;;;;;26.96;39.20;93679.97;5007380;28;7253;-56
2023/03/24 08:03:26;;;;;;;;;;;;;;;26.96;39.36;93691.03;4972603;28;7313;-56
2023/03/24 08:05:55;;;;;;;;;;;;;;;26.97;39.70;93681.47;4967092;28;9062;-56
2023/03/24 08:08:51;;;;;;;;;;;;;;;26.98;39.21;93680.94;4966724;28;7034;-56
2023/03/24 08:11:29;;;;;;;;;;;;;;;26.95;39.67;93715.09;4911066;29;9031;-56
2023/03/24 08:13:57;;;;;;;;;;;;;;;26.98;39.51;93722.31;4949146;28;8988;-56
2023/03/24 08:16:39;;;;;;;;;;;;;;;26.98;39.24;93711.28;4935206;29;7229;-56
2023/03/24 08:19:21;;;;;;;;;;;;;;;26.98;39.47;93678.16;4924216;29;8733;-56
2023/03/24 08:22:16;;;;;;;;;;;;;;;26.99;39.54;93657.56;4919130;29;7738;-56
2023/03/24 08:24:58;;;;;;;;;;;;;;;27.00;39.35;93647.25;4932692;29;7249;-57
2023/03/24 08:27:24;;;;;;;;;;;;;;;26.99;39.40;93654.78;4930574;29;7050;-57
2023/03/24 08:30:09;;;;;;;;;;;;;;;27.01;39.44;93665.31;4929829;28;7058;-56
2023/03/24 08:32:42;;;;;;;;;;;;;;;26.99;39.82;93663.06;4927319;29;7126;-56
2023/03/24 08:35:22;;;;;;;;;;;;;;;26.98;39.50;93661.59;4950921;28;7112;-57
2023/03/24 08:38:13;;;;;;;;;;;;;;;27.02;39.61;93667.53;4919502;29;9247;-56
2023/03/24 08:40:41;;;;;;;;;;;;;;;27.01;39.49;93663.31;4947913;28;8810;-56
2023/03/24 08:43:12;;;;;;;;;;;;;;;27.00;39.38;93664.56;4934782;28;7307;-56
2023/03/24 08:45:39;;;;;;;;;;;;;;;27.00;39.34;93659.06;4934921;28;7449;-56
2023/03/24 08:48:15;;;;;;;;;;;;;;;27.01;39.52;93670.84;4992459;28;9091;-56
2023/03/24 08:50:56;;;;;;;;;;;;;;;27.03;39.16;93657.97;5004043;28;9433;-56
2023/03/24 08:53:33;;;;;;;;;;;;;;;27.01;39.68;93654.28;5002909;28;7285;-56
2023/03/24 08:56:00;;;;;;;;;;;;;;;27.02;40.00;93659.25;5028708;28;9088;-57
2023/03/24 08:58:58;;;;;;;;;;;;;;;27.06;39.30;93656.16;5037266;28;8112;-57
2023/03/24 09:01:34;;;;;;;;;;;;;;;27.05;40.02;93660.94;5013608;28;7187;-56
2023/03/24 09:04:32;;;;;;;;;;;;;;;27.07;39.88;93657.63;5011536;28;8713;-56
2023/03/24 09:07:10;;;;;;;;;;;;;;;27.00;40.62;93656.28;4978180;28;9203;-56
2023/03/24 09:09:39;;;;;;;;;;;;;;;26.97;40.25;93646.31;4976315;28;8721;-56
2023/03/24 09:12:37;;;;;;;;;;;;;;;27.01;40.40;93643.25;4993277;28;9084;-56
2023/03/24 09:15:25;;;;;;;;;;;;;;;27.05;40.38;93660.94;4950660;28;9159;-56
2023/03/24 09:18:01;;;;;;;;;;;;;;;27.07;40.01;93658.38;4936642;28;9135;-56
2023/03/24 09:20:51;;;;;;;;;;;;;;;27.09;39.87;93664.09;4949979;28;9259;-56
2023/03/24 09:23:20;;;;;;;;;;;;;;;27.11;39.82;93674.59;4950325;28;7916;-56
2023/03/24 09:26:03;;;;;;;;;;;;;;;27.10;39.44;93673.84;4953740;28;7299;-56
2023/03/24 09:28:39;;;;;;;;;;;;;;;27.11;40.17;93674.59;4952714;28;7915;-56
2023/03/24 09:31:37;;;;;;;;;;;;;;;26.99;40.15;93679.63;4937683;28;9283;-57
2023/03/24 09:34:08;;;;;;;;;;;;;;;27.10;40.25;93679.38;4932245;29;7889;-56
2023/03/24 09:36:53;;;;;;;;;;;;;;;27.22;39.90;93683.38;5045009;28;6653;-54
2023/03/24 09:39:27;;;;;;;;;;;;;;;27.27;40.09;93690.03;5027592;28;7254;-54
2023/03/24 09:42:35;;;;;;;;;;;;;;;27.24;40.22;93696.63;5028799;28;8103;-54
2023/03/24 09:45:18;;;;;;;;;;;;;;;27.24;39.83;93705.66;5002886;28;9012;-54
2023/03/24 09:48:27;;;;;;;;;;;;;;;27.32;39.46;93705.72;5004482;28;7091;-54
2023/03/24 09:51:04;;;;;;;;;;;;;;;27.32;39.94;93717.50;4931850;29;9868;-54
2023/03/24 09:53:54;;;;;;;;;;;;;;;27.34;39.68;93703.91;4921452;29;7122;-54
2023/03/24 09:56:54;;;;;;;;;;;;;;;27.32;39.42;93711.25;4949170;29;9007;-54
2023/03/24 09:59:40;;;;;;;;;;;;;;;27.27;39.95;93696.31;4930451;29;8227;-54
2023/03/24 10:02:22;;;;;;;;;;;;;;;27.23;39.55;93693.13;4951784;28;9373;-54
2023/03/24 10:04:49;;;;;;;;;;;;;;;27.21;39.72;93695.69;4949835;28;9274;-54
2023/03/24 10:08:03;;;;;;;;;;;;;;;27.19;39.85;93695.47;4953607;28;8693;-54
2023/03/24 10:11:15;;;;;;;;;;;;;;;27.22;39.84;93710.22;4885565;29;9059;-54
2023/03/24 10:14:12;;;;;;;;;;;;;;;27.22;39.53;93713.75;4865221;29;7246;-54
2023/03/24 10:17:21;;;;;;;;;;;;;;;27.21;39.68;93715.00;4854955;29;7268;-54
2023/03/24 10:20:06;;;;;;;;;;;;;;;27.19;39.70;93708.53;4877235;29;7160;-54
2023/03/24 10:22:49;;;;;;;;;;;;;;;27.20;39.46;93710.78;4892044;29;7298;-54
2023/03/24 10:26:04;;;;;;;;;;;;;;;27.19;39.54;93703.75;4902781;29;9326;-54
2023/03/24 10:28:51;;;;;;;;;;;;;;;27.20;39.43;93702.50;4858139;29;7513;-54
2023/03/24 10:31:30;;;;;;;;;;;;;;;27.20;39.50;93702.50;4873508;29;7428;-53
2023/03/24 10:34:14;;;;;;;;;;;;;;;27.19;39.40;93712.03;4864547;29;7038;-54
2023/03/24 10:36:58;;;;;;;;;;;;;;;27.19;39.83;93703.75;4859453;29;7406;-54
2023/03/24 10:39:25;;;;;;;;;;;;;;;27.18;39.66;93691.25;4873479;29;7229;-54
2023/03/24 10:41:53;;;;;;;;;;;;;;;27.18;39.86;93688.50;4873229;29;7144;-54
2023/03/24 10:44:29;;;;;;;;;;;;;;;27.19;39.32;93691.97;4873318;29;7014;-54
2023/03/24 10:47:03;;;;;;;;;;;;;;;27.19;39.41;93698.25;4939338;28;7258;-54
2023/03/24 10:49:30;;;;;;;;;;;;;;;27.19;39.32;93686.44;4933783;28;7057;-54
2023/03/24 10:52:08;;;;;;;;;;;;;;;27.16;39.18;93685.53;4953983;28;7070;-54
2023/03/24 10:55:02;;;;;;;;;;;;;;;27.17;39.55;93687.00;4951758;28;8695;-54
2023/03/24 10:57:35;;;;;;;;;;;;;;;27.19;39.38;93687.19;4955058;28;7054;-55
2023/03/24 11:00:19;;;;;;;;;;;;;;;27.22;39.67;93694.41;4914179;28;9184;-54
2023/03/24 11:03:07;;;;;;;;;;;;;;;27.23;39.48;93686.88;4944318;28;9324;-55
2023/03/24 11:05:48;;;;;;;;;;;;;;;27.18;39.54;93682.97;4980159;28;7124;-55
2023/03/24 11:08:31;;;;;;;;;;;;;;;27.17;40.17;93684.22;4991778;28;9409;-55
2023/03/24 11:11:28;;;;;;;;;;;;;;;27.20;39.78;93683.16;5007192;28;7096;-55
2023/03/24 11:14:00;;;;;;;;;;;;;;;27.22;39.54;93680.63;4991407;28;7427;-55
2023/03/24 11:16:47;;;;;;;;;;;;;;;27.22;39.74;93686.13;4989656;28;7071;-54
2023/03/24 11:19:25;;;;;;;;;;;;;;;27.21;39.78;93694.97;5003024;28;7277;-55
2023/03/24 11:22:05;;;;;;;;;;;;;;;27.20;40.03;93694.22;4978582;28;7621;-55
2023/03/24 11:24:37;;;;;;;;;;;;;;;27.17;40.12;93695.28;5001358;28;9236;-55
2023/03/24 11:27:17;;;;;;;;;;;;;;;27.16;40.15;93709.63;5005213;28;7417;-55
2023/03/24 11:29:55;;;;;;;;;;;;;;;27.17;39.76;93708.34;4972281;28;8702;-55
2023/03/24 11:32:26;;;;;;;;;;;;;;;27.15;40.00;93711.63;4995052;28;7296;-54
2023/03/24 11:35:23;;;;;;;;;;;;;;;27.16;40.26;93721.41;4986698;28;7265;-55
2023/03/24 11:37:51;;;;;;;;;;;;;;;27.13;40.06;93708.69;4869224;29;9045;-56
2023/03/24 11:40:24;;;;;;;;;;;;;;;27.12;40.02;93718.22;4872119;29;9099;-56
2023/03/24 11:42:59;;;;;;;;;;;;;;;27.13;40.11;93716.22;4859379;29;7132;-56
2023/03/24 11:45:42;;;;;;;;;;;;;;;27.13;40.14;93727.25;4866767;29;7484;-56
2023/03/24 11:48:38;;;;;;;;;;;;;;;27.14;40.12;93726.75;4860574;29;9103;-56
2023/03/24 11:51:05;;;;;;;;;;;;;;;27.11;40.61;93713.25;4872306;29;7106;-56
2023/03/24 11:53:46;;;;;;;;;;;;;;;27.14;40.09;93710.19;4888884;29;8506;-56
2023/03/24 11:56:34;;;;;;;;;;;;;;;27.12;40.25;93704.41;4890259;29;9461;-55
2023/03/24 11:59:13;;;;;;;;;;;;;;;27.11;39.98;93702.97;4889353;29;9273;-55
2023/03/24 12:02:24;;;;;;;;;;;;;;;27.16;39.81;93709.63;4891617;29;7254;-56
2023/03/24 12:05:15;;;;;;;;;;;;;;;27.19;40.00;93694.72;4876632;29;7197;-55
2023/03/24 12:08:17;;;;;;;;;;;;;;;27.21;39.79;93690.16;4874746;29;9448;-55
2023/03/24 12:10:51;;;;;;;;;;;;;;;27.23;40.24;93692.41;4872766;29;7205;-55
2023/03/24 12:13:38;;;;;;;;;;;;;;;27.19;39.64;93698.25;4885499;29;7327;-55
2023/03/24 12:16:16;;;;;;;;;;;;;;;27.20;40.15;93688.69;4912702;29;7049;-55
2023/03/24 12:19:03;;;;;;;;;;;;;;;27.18;40.04;93691.25;4914896;29;9058;-55
2023/03/24 12:21:59;;;;;;;;;;;;;;;27.20;39.47;93694.22;4914173;29;7218;-55
2023/03/24 12:25:07;;;;;;;;;;;;;;;27.19;39.47;93692.72;4913314;29;7303;-55
2023/03/24 12:28:08;;;;;;;;;;;;;;;27.18;39.72;93696.78;4909283;29;7605;-55
2023/03/24 12:30:44;;;;;;;;;;;;;;;27.16;40.15;93713.13;4913516;29;8331;-55
2023/03/24 12:33:43;;;;;;;;;;;;;;;27.16;39.91;93732.47;4910230;29;7628;-55
2023/03/24 12:36:19;;;;;;;;;;;;;;;27.17;39.99;93730.41;4911982;29;6988;-55
2023/03/24 12:39:07;;;;;;;;;;;;;;;27.16;39.42;93732.47;4913706;29;7059;-55
2023/03/24 12:41:54;;;;;;;;;;;;;;;27.18;39.77;93724.38;5006630;28;7275;-55
2023/03/24 12:44:45;;;;;;;;;;;;;;;27.17;39.82;93731.16;5007612;28;9380;-55
2023/03/24 12:47:51;;;;;;;;;;;;;;;27.18;40.08;93737.44;5005132;28;7112;-56
2023/03/24 12:51:01;;;;;;;;;;;;;;;27.18;39.85;93723.63;5008510;28;7926;-55
2023/03/24 12:57:16;;;;;;;;;;;;;;;27.15;39.76;93714.41;4972764;28;6994;-55
2023/03/24 13:00:05;;;;;;;;;;;;;;;27.12;39.92;93709.94;4964005;28;7341;-55
2023/03/24 13:03:22;;;;;;;;;;;;;;;27.12;40.09;93720.28;4941675;28;7240;-55
2023/03/24 13:05:57;;;;;;;;;;;;;;;27.09;40.09;93716.56;4932718;29;7528;-55
2023/03/24 13:08:31;;;;;;;;;;;;;;;27.11;39.69;93719.53;4943977;28;9172;-55
2023/03/24 13:11:05;;;;;;;;;;;;;;;27.09;40.24;93705.50;4936802;28;9325;-55
2023/03/24 13:13:39;;;;;;;;;;;;;;;27.12;40.05;93712.00;4949230;28;7344;-55
2023/03/24 13:16:18;;;;;;;;;;;;;;;27.11;40.07;93719.53;4936995;28;9364;-55
2023/03/24 13:18:53;;;;;;;;;;;;;;;27.10;40.25;93722.81;4924338;28;9016;-55
2023/03/24 13:21:33;;;;;;;;;;;;;;;27.11;39.94;93721.53;4938680;28;7166;-55
2023/03/24 13:24:08;;;;;;;;;;;;;;;27.11;40.15;93716.75;4930305;28;8759;-55
2023/03/24 13:26:42;;;;;;;;;;;;;;;27.11;39.93;93714.00;4925223;28;8880;-55
2023/03/24 13:29:23;;;;;;;;;;;;;;;27.13;39.73;93708.69;4931130;28;8986;-55
2023/03/24 13:32:23;;;;;;;;;;;;;;;27.11;39.89;93696.69;4931104;29;7099;-55
2023/03/24 13:35:36;;;;;;;;;;;;;;;27.09;39.93;93705.50;4895522;29;7274;-55
2023/03/24 13:38:16;;;;;;;;;;;;;;;27.08;40.08;93704.03;4912039;29;6986;-55
2023/03/24 13:40:49;;;;;;;;;;;;;;;27.08;40.10;93695.75;4905981;29;7216;-55
2023/03/24 13:43:35;;;;;;;;;;;;;;;27.10;40.13;93703.50;4972082;28;8613;-55
2023/03/24 13:46:03;;;;;;;;;;;;;;;27.10;39.91;93701.47;4956032;28;9489;-55
2023/03/24 13:48:41;;;;;;;;;;;;;;;27.11;40.34;93691.16;4955780;28;7038;-55
2023/03/24 13:51:42;;;;;;;;;;;;;;;27.10;40.23;93695.94;4959222;28;8696;-55
2023/03/24 13:54:35;;;;;;;;;;;;;;;27.07;40.32;93691.50;4936994;29;9264;-55
2023/03/24 13:57:19;;;;;;;;;;;;;;;27.06;40.12;93683.75;4937088;29;9055;-56
2023/03/24 14:00:10;;;;;;;;;;;;;;;27.06;40.24;93701.06;4950453;28;9424;-55
2023/03/24 14:02:47;;;;;;;;;;;;;;;27.03;40.15;93701.41;4942199;29;7496;-55
2023/03/24 14:05:25;;;;;;;;;;;;;;;27.05;39.98;93704.38;4942737;28;9014;-55
2023/03/24 14:08:36;;;;;;;;;;;;;;;27.04;40.11;93703.63;4937091;28;9096;-55
2023/03/24 14:11:33;;;;;;;;;;;;;;;27.06;40.24;93712.09;4963202;28;8848;-55
2023/03/24 14:14:19;;;;;;;;;;;;;;;27.05;40.20;93713.38;4961580;28;9411;-55